sensor_id;sensor_type;location;lat;lon;timestamp;P1;durP1;ratioP1;P2;durP2;ratioP2
14092;SDS011;7123;49.468;10.992;2023-11-19T00:00:18;2.33;;;2.13;;
14092;SDS011;7123;49.468;10.992;2023-11-19T00:02:48;2.53;;;2.37;;
14092;SDS011;7123;49.468;10.992;2023-11-19T00:05:15;2.67;;;2.47;;
14092;SDS011;7123;49.468;10.992;2023-11-19T00:07:46;2.70;;;2.30;;
14092;SDS011;7123;49.468;10.992;2023-11-19T00:10:15;2.57;;;2.37;;
14092;SDS011;7123;49.468;10.992;2023-11-19T00:12:48;2.53;;;2.40;;
14092;SDS011;7123;49.468;10.992;2023-11-19T00:15:15;2.53;;;2.33;;
14092;SDS011;7123;49.468;10.992;2023-11-19T00:17:45;2.57;;;2.37;;
14092;SDS011;7123;49.468;10.992;2023-11-19T00:20:14;2.87;;;2.60;;
14092;SDS011;7123;49.468;10.992;2023-11-19T00:22:43;2.50;;;2.30;;
14092;SDS011;7123;49.468;10.992;2023-11-19T00:25:16;3.03;;;2.83;;
14092;SDS011;7123;49.468;10.992;2023-11-19T00:27:43;2.60;;;2.50;;
14092;SDS011;7123;49.468;10.992;2023-11-19T00:30:13;2.60;;;2.40;;
14092;SDS011;7123;49.468;10.992;2023-11-19T00:32:41;3.70;;;2.30;;
14092;SDS011;7123;49.468;10.992;2023-11-19T00:35:08;2.23;;;2.13;;
14092;SDS011;7123;49.468;10.992;2023-11-19T00:37:40;2.33;;;2.13;;
14092;SDS011;7123;49.468;10.992;2023-11-19T00:40:09;2.43;;;2.33;;
14092;SDS011;7123;49.468;10.992;2023-11-19T00:42:38;3.37;;;2.30;;
14092;SDS011;7123;49.468;10.992;2023-11-19T00:45:06;2.40;;;2.20;;
14092;SDS011;7123;49.468;10.992;2023-11-19T00:47:38;2.27;;;2.07;;
14092;SDS011;7123;49.468;10.992;2023-11-19T00:50:06;2.60;;;2.43;;
14092;SDS011;7123;49.468;10.992;2023-11-19T00:52:44;2.40;;;2.20;;
14092;SDS011;7123;49.468;10.992;2023-11-19T00:55:12;2.37;;;2.27;;
14092;SDS011;7123;49.468;10.992;2023-11-19T00:57:39;1.93;;;1.83;;
14092;SDS011;7123;49.468;10.992;2023-11-19T01:00:07;2.20;;;2.10;;
14092;SDS011;7123;49.468;10.992;2023-11-19T01:02:53;2.20;;;2.10;;
14092;SDS011;7123;49.468;10.992;2023-11-19T01:05:20;2.10;;;2.00;;
14092;SDS011;7123;49.468;10.992;2023-11-19T01:07:50;2.60;;;2.40;;
14092;SDS011;7123;49.468;10.992;2023-11-19T01:10:19;3.00;;;2.70;;
14092;SDS011;7123;49.468;10.992;2023-11-19T01:12:46;2.73;;;2.43;;
14092;SDS011;7123;49.468;10.992;2023-11-19T01:15:13;2.87;;;2.63;;
14092;SDS011;7123;49.468;10.992;2023-11-19T01:17:40;2.73;;;2.57;;
14092;SDS011;7123;49.468;10.992;2023-11-19T01:20:18;3.90;;;2.40;;
14092;SDS011;7123;49.468;10.992;2023-11-19T01:22:46;2.60;;;2.40;;
14092;SDS011;7123;49.468;10.992;2023-11-19T01:25:14;2.70;;;2.50;;
14092;SDS011;7123;49.468;10.992;2023-11-19T01:27:42;2.50;;;2.30;;
14092;SDS011;7123;49.468;10.992;2023-11-19T01:30:09;2.87;;;2.63;;
14092;SDS011;7123;49.468;10.992;2023-11-19T01:32:39;2.50;;;2.30;;
14092;SDS011;7123;49.468;10.992;2023-11-19T01:35:07;2.57;;;2.37;;
14092;SDS011;7123;49.468;10.992;2023-11-19T01:37:37;2.53;;;2.33;;
14092;SDS011;7123;49.468;10.992;2023-11-19T01:40:04;2.47;;;2.37;;
14092;SDS011;7123;49.468;10.992;2023-11-19T01:42:39;2.30;;;2.20;;
14092;SDS011;7123;49.468;10.992;2023-11-19T01:45:06;2.50;;;2.30;;
14092;SDS011;7123;49.468;10.992;2023-11-19T01:47:35;2.40;;;2.27;;
14092;SDS011;7123;49.468;10.992;2023-11-19T01:50:03;2.30;;;2.10;;
14092;SDS011;7123;49.468;10.992;2023-11-19T01:52:33;2.47;;;2.27;;
14092;SDS011;7123;49.468;10.992;2023-11-19T01:55:03;2.37;;;2.27;;
14092;SDS011;7123;49.468;10.992;2023-11-19T01:57:30;2.50;;;2.27;;
14092;SDS011;7123;49.468;10.992;2023-11-19T01:59:57;2.50;;;2.30;;
14092;SDS011;7123;49.468;10.992;2023-11-19T02:02:24;2.40;;;2.30;;
14092;SDS011;7123;49.468;10.992;2023-11-19T02:04:52;2.37;;;2.20;;
14092;SDS011;7123;49.468;10.992;2023-11-19T02:07:19;2.67;;;2.47;;
14092;SDS011;7123;49.468;10.992;2023-11-19T02:09:47;2.37;;;2.27;;
14092;SDS011;7123;49.468;10.992;2023-11-19T02:12:13;2.57;;;2.37;;
14092;SDS011;7123;49.468;10.992;2023-11-19T02:14:41;2.23;;;2.13;;
14092;SDS011;7123;49.468;10.992;2023-11-19T02:17:09;2.37;;;2.27;;
14092;SDS011;7123;49.468;10.992;2023-11-19T02:19:54;2.30;;;2.20;;
14092;SDS011;7123;49.468;10.992;2023-11-19T02:22:36;2.47;;;2.30;;
14092;SDS011;7123;49.468;10.992;2023-11-19T02:25:04;2.67;;;2.47;;
14092;SDS011;7123;49.468;10.992;2023-11-19T02:27:53;2.40;;;2.20;;
14092;SDS011;7123;49.468;10.992;2023-11-19T02:30:26;2.10;;;1.90;;
14092;SDS011;7123;49.468;10.992;2023-11-19T02:32:57;2.43;;;2.23;;
14092;SDS011;7123;49.468;10.992;2023-11-19T02:35:27;2.30;;;2.20;;
14092;SDS011;7123;49.468;10.992;2023-11-19T02:37:54;2.43;;;2.23;;
14092;SDS011;7123;49.468;10.992;2023-11-19T02:40:21;2.30;;;2.10;;
14092;SDS011;7123;49.468;10.992;2023-11-19T02:42:53;2.57;;;2.43;;
14092;SDS011;7123;49.468;10.992;2023-11-19T02:45:22;4.23;;;2.93;;
14092;SDS011;7123;49.468;10.992;2023-11-19T02:47:49;2.80;;;2.60;;
14092;SDS011;7123;49.468;10.992;2023-11-19T02:50:17;2.93;;;2.40;;
14092;SDS011;7123;49.468;10.992;2023-11-19T02:52:52;3.03;;;2.73;;
14092;SDS011;7123;49.468;10.992;2023-11-19T02:55:20;2.63;;;2.40;;
14092;SDS011;7123;49.468;10.992;2023-11-19T02:57:47;2.53;;;2.43;;
14092;SDS011;7123;49.468;10.992;2023-11-19T03:00:20;2.27;;;2.17;;
14092;SDS011;7123;49.468;10.992;2023-11-19T03:03:02;2.60;;;2.40;;
14092;SDS011;7123;49.468;10.992;2023-11-19T03:05:45;2.20;;;2.00;;
14092;SDS011;7123;49.468;10.992;2023-11-19T03:08:13;2.37;;;2.20;;
14092;SDS011;7123;49.468;10.992;2023-11-19T03:10:44;2.57;;;2.37;;
14092;SDS011;7123;49.468;10.992;2023-11-19T03:13:11;3.13;;;2.83;;
14092;SDS011;7123;49.468;10.992;2023-11-19T03:15:40;3.00;;;2.80;;
14092;SDS011;7123;49.468;10.992;2023-11-19T03:18:07;2.67;;;2.47;;
14092;SDS011;7123;49.468;10.992;2023-11-19T03:20:34;3.10;;;2.80;;
14092;SDS011;7123;49.468;10.992;2023-11-19T03:25:59;2.60;;;2.50;;
14092;SDS011;7123;49.468;10.992;2023-11-19T03:28:29;3.10;;;2.90;;
14092;SDS011;7123;49.468;10.992;2023-11-19T03:30:57;2.77;;;2.57;;
14092;SDS011;7123;49.468;10.992;2023-11-19T03:33:23;2.97;;;2.77;;
14092;SDS011;7123;49.468;10.992;2023-11-19T03:35:54;3.80;;;3.50;;
14092;SDS011;7123;49.468;10.992;2023-11-19T03:38:23;3.40;;;3.10;;
14092;SDS011;7123;49.468;10.992;2023-11-19T03:40:51;3.70;;;3.50;;
14092;SDS011;7123;49.468;10.992;2023-11-19T03:43:18;3.80;;;3.50;;
14092;SDS011;7123;49.468;10.992;2023-11-19T03:45:45;3.10;;;2.90;;
14092;SDS011;7123;49.468;10.992;2023-11-19T03:48:13;4.27;;;3.87;;
14092;SDS011;7123;49.468;10.992;2023-11-19T03:50:42;4.70;;;3.90;;
14092;SDS011;7123;49.468;10.992;2023-11-19T03:53:11;5.07;;;4.67;;
14092;SDS011;7123;49.468;10.992;2023-11-19T03:55:38;4.87;;;4.43;;
14092;SDS011;7123;49.468;10.992;2023-11-19T03:58:05;5.33;;;4.83;;
14092;SDS011;7123;49.468;10.992;2023-11-19T04:00:32;4.20;;;3.90;;
14092;SDS011;7123;49.468;10.992;2023-11-19T04:02:59;4.23;;;3.83;;
14092;SDS011;7123;49.468;10.992;2023-11-19T04:05:26;5.27;;;4.50;;
14092;SDS011;7123;49.468;10.992;2023-11-19T04:07:52;4.80;;;4.40;;
14092;SDS011;7123;49.468;10.992;2023-11-19T04:10:19;4.43;;;4.03;;
14092;SDS011;7123;49.468;10.992;2023-11-19T04:12:46;4.37;;;3.97;;
14092;SDS011;7123;49.468;10.992;2023-11-19T04:15:13;4.40;;;4.00;;
14092;SDS011;7123;49.468;10.992;2023-11-19T04:17:40;4.70;;;4.30;;
14092;SDS011;7123;49.468;10.992;2023-11-19T04:20:07;4.50;;;4.13;;
14092;SDS011;7123;49.468;10.992;2023-11-19T04:22:38;4.80;;;4.40;;
14092;SDS011;7123;49.468;10.992;2023-11-19T04:25:05;4.70;;;4.30;;
14092;SDS011;7123;49.468;10.992;2023-11-19T04:27:32;5.23;;;4.63;;
14092;SDS011;7123;49.468;10.992;2023-11-19T04:29:58;5.23;;;4.77;;
14092;SDS011;7123;49.468;10.992;2023-11-19T04:32:27;4.60;;;4.20;;
14092;SDS011;7123;49.468;10.992;2023-11-19T04:34:55;4.50;;;4.10;;
14092;SDS011;7123;49.468;10.992;2023-11-19T04:37:22;4.53;;;4.13;;
14092;SDS011;7123;49.468;10.992;2023-11-19T04:39:48;5.17;;;4.70;;
14092;SDS011;7123;49.468;10.992;2023-11-19T04:42:15;4.03;;;3.73;;
14092;SDS011;7123;49.468;10.992;2023-11-19T04:44:43;4.80;;;4.30;;
14092;SDS011;7123;49.468;10.992;2023-11-19T04:47:10;4.93;;;4.53;;
14092;SDS011;7123;49.468;10.992;2023-11-19T04:49:40;4.77;;;3.93;;
14092;SDS011;7123;49.468;10.992;2023-11-19T04:52:08;4.00;;;3.70;;
14092;SDS011;7123;49.468;10.992;2023-11-19T04:54:35;4.40;;;4.00;;
14092;SDS011;7123;49.468;10.992;2023-11-19T04:57:08;4.00;;;3.70;;
14092;SDS011;7123;49.468;10.992;2023-11-19T04:59:37;4.37;;;3.80;;
14092;SDS011;7123;49.468;10.992;2023-11-19T05:02:04;4.60;;;3.77;;
14092;SDS011;7123;49.468;10.992;2023-11-19T05:04:31;4.43;;;4.10;;
14092;SDS011;7123;49.468;10.992;2023-11-19T05:06:58;4.37;;;3.97;;
14092;SDS011;7123;49.468;10.992;2023-11-19T05:09:25;4.33;;;3.93;;
14092;SDS011;7123;49.468;10.992;2023-11-19T05:11:51;4.13;;;3.83;;
14092;SDS011;7123;49.468;10.992;2023-11-19T05:14:18;4.10;;;3.80;;
14092;SDS011;7123;49.468;10.992;2023-11-19T05:16:46;5.10;;;4.30;;
14092;SDS011;7123;49.468;10.992;2023-11-19T05:19:14;7.20;;;4.03;;
14092;SDS011;7123;49.468;10.992;2023-11-19T05:21:44;4.33;;;3.93;;
14092;SDS011;7123;49.468;10.992;2023-11-19T05:24:11;5.10;;;4.60;;
14092;SDS011;7123;49.468;10.992;2023-11-19T05:26:40;5.83;;;4.90;;
14092;SDS011;7123;49.468;10.992;2023-11-19T05:29:07;5.97;;;5.17;;
14092;SDS011;7123;49.468;10.992;2023-11-19T05:31:34;6.10;;;5.37;;
14092;SDS011;7123;49.468;10.992;2023-11-19T05:34:03;5.10;;;4.60;;
14092;SDS011;7123;49.468;10.992;2023-11-19T05:36:30;5.43;;;4.90;;
14092;SDS011;7123;49.468;10.992;2023-11-19T05:38:58;5.10;;;4.60;;
14092;SDS011;7123;49.468;10.992;2023-11-19T05:41:24;5.53;;;5.03;;
14092;SDS011;7123;49.468;10.992;2023-11-19T05:43:51;5.27;;;4.77;;
14092;SDS011;7123;49.468;10.992;2023-11-19T05:46:18;5.77;;;5.27;;
14092;SDS011;7123;49.468;10.992;2023-11-19T05:48:46;5.50;;;5.00;;
14092;SDS011;7123;49.468;10.992;2023-11-19T05:51:14;6.30;;;4.80;;
14092;SDS011;7123;49.468;10.992;2023-11-19T05:53:44;5.30;;;4.70;;
14092;SDS011;7123;49.468;10.992;2023-11-19T05:56:12;5.03;;;4.47;;
14092;SDS011;7123;49.468;10.992;2023-11-19T05:58:39;5.37;;;4.87;;
14092;SDS011;7123;49.468;10.992;2023-11-19T06:01:06;5.50;;;5.00;;
14092;SDS011;7123;49.468;10.992;2023-11-19T06:03:34;5.17;;;4.50;;
14092;SDS011;7123;49.468;10.992;2023-11-19T06:06:01;4.70;;;4.30;;
14092;SDS011;7123;49.468;10.992;2023-11-19T06:08:28;5.20;;;4.40;;
14092;SDS011;7123;49.468;10.992;2023-11-19T06:10:56;5.73;;;5.20;;
14092;SDS011;7123;49.468;10.992;2023-11-19T06:13:23;5.00;;;4.50;;
14092;SDS011;7123;49.468;10.992;2023-11-19T06:15:51;4.70;;;4.30;;
14092;SDS011;7123;49.468;10.992;2023-11-19T06:18:18;4.10;;;3.80;;
14092;SDS011;7123;49.468;10.992;2023-11-19T06:20:46;6.17;;;5.57;;
14092;SDS011;7123;49.468;10.992;2023-11-19T06:23:13;4.70;;;4.30;;
14092;SDS011;7123;49.468;10.992;2023-11-19T06:25:40;6.40;;;5.50;;
14092;SDS011;7123;49.468;10.992;2023-11-19T06:28:07;5.20;;;4.70;;
14092;SDS011;7123;49.468;10.992;2023-11-19T06:30:34;4.63;;;4.07;;
14092;SDS011;7123;49.468;10.992;2023-11-19T06:33:02;5.30;;;4.80;;
14092;SDS011;7123;49.468;10.992;2023-11-19T06:35:30;4.27;;;3.90;;
14092;SDS011;7123;49.468;10.992;2023-11-19T06:38:02;4.03;;;3.73;;
14092;SDS011;7123;49.468;10.992;2023-11-19T06:40:31;4.37;;;3.97;;
14092;SDS011;7123;49.468;10.992;2023-11-19T06:42:59;4.60;;;4.20;;
14092;SDS011;7123;49.468;10.992;2023-11-19T06:45:27;4.77;;;4.33;;
14092;SDS011;7123;49.468;10.992;2023-11-19T06:47:53;4.93;;;3.50;;
14092;SDS011;7123;49.468;10.992;2023-11-19T06:50:20;2.67;;;2.47;;
14092;SDS011;7123;49.468;10.992;2023-11-19T06:52:47;3.00;;;2.80;;
14092;SDS011;7123;49.468;10.992;2023-11-19T06:55:14;2.17;;;2.07;;
14092;SDS011;7123;49.468;10.992;2023-11-19T06:57:41;1.80;;;1.60;;
14092;SDS011;7123;49.468;10.992;2023-11-19T07:00:07;2.00;;;1.90;;
14092;SDS011;7123;49.468;10.992;2023-11-19T07:02:35;1.90;;;1.80;;
14092;SDS011;7123;49.468;10.992;2023-11-19T07:05:02;1.73;;;1.37;;
14092;SDS011;7123;49.468;10.992;2023-11-19T07:07:31;1.70;;;1.60;;
14092;SDS011;7123;49.468;10.992;2023-11-19T07:10:02;1.60;;;1.50;;
14092;SDS011;7123;49.468;10.992;2023-11-19T07:12:30;1.53;;;1.43;;
14092;SDS011;7123;49.468;10.992;2023-11-19T07:14:57;0.80;;;0.80;;
14092;SDS011;7123;49.468;10.992;2023-11-19T07:17:24;1.20;;;1.13;;
14092;SDS011;7123;49.468;10.992;2023-11-19T07:19:51;1.20;;;1.10;;
14092;SDS011;7123;49.468;10.992;2023-11-19T07:22:17;0.70;;;0.70;;
14092;SDS011;7123;49.468;10.992;2023-11-19T07:24:46;0.70;;;0.70;;
14092;SDS011;7123;49.468;10.992;2023-11-19T07:27:13;1.37;;;1.27;;
14092;SDS011;7123;49.468;10.992;2023-11-19T07:29:40;1.00;;;0.90;;
14092;SDS011;7123;49.468;10.992;2023-11-19T07:32:07;0.50;;;0.50;;
14092;SDS011;7123;49.468;10.992;2023-11-19T07:34:34;0.90;;;0.60;;
14092;SDS011;7123;49.468;10.992;2023-11-19T07:37:01;0.40;;;0.40;;
14092;SDS011;7123;49.468;10.992;2023-11-19T07:39:29;0.30;;;0.30;;
14092;SDS011;7123;49.468;10.992;2023-11-19T07:41:56;0.43;;;0.40;;
14092;SDS011;7123;49.468;10.992;2023-11-19T07:44:23;0.57;;;0.57;;
14092;SDS011;7123;49.468;10.992;2023-11-19T07:46:50;0.50;;;0.50;;
14092;SDS011;7123;49.468;10.992;2023-11-19T07:49:17;0.40;;;0.40;;
14092;SDS011;7123;49.468;10.992;2023-11-19T07:51:44;1.43;;;0.53;;
14092;SDS011;7123;49.468;10.992;2023-11-19T07:54:10;1.43;;;0.57;;
14092;SDS011;7123;49.468;10.992;2023-11-19T07:56:37;0.60;;;0.60;;
14092;SDS011;7123;49.468;10.992;2023-11-19T07:59:04;0.60;;;0.60;;
14092;SDS011;7123;49.468;10.992;2023-11-19T08:01:31;0.80;;;0.60;;
14092;SDS011;7123;49.468;10.992;2023-11-19T08:03:58;0.60;;;0.60;;
14092;SDS011;7123;49.468;10.992;2023-11-19T08:06:26;0.80;;;0.60;;
14092;SDS011;7123;49.468;10.992;2023-11-19T08:08:53;1.10;;;0.50;;
14092;SDS011;7123;49.468;10.992;2023-11-19T08:11:21;0.80;;;0.80;;
14092;SDS011;7123;49.468;10.992;2023-11-19T08:13:48;0.60;;;0.60;;
14092;SDS011;7123;49.468;10.992;2023-11-19T08:16:15;0.50;;;0.50;;
14092;SDS011;7123;49.468;10.992;2023-11-19T08:18:45;0.73;;;0.67;;
14092;SDS011;7123;49.468;10.992;2023-11-19T08:21:25;0.63;;;0.63;;
14092;SDS011;7123;49.468;10.992;2023-11-19T08:23:53;1.57;;;0.70;;
14092;SDS011;7123;49.468;10.992;2023-11-19T08:26:21;0.80;;;0.80;;
14092;SDS011;7123;49.468;10.992;2023-11-19T08:28:48;1.23;;;1.13;;
14092;SDS011;7123;49.468;10.992;2023-11-19T08:31:15;0.60;;;0.60;;
14092;SDS011;7123;49.468;10.992;2023-11-19T08:33:43;1.00;;;0.90;;
14092;SDS011;7123;49.468;10.992;2023-11-19T08:36:15;2.93;;;1.30;;
14092;SDS011;7123;49.468;10.992;2023-11-19T08:38:44;1.37;;;1.10;;
14092;SDS011;7123;49.468;10.992;2023-11-19T08:41:12;3.67;;;2.30;;
14092;SDS011;7123;49.468;10.992;2023-11-19T08:43:39;2.80;;;2.17;;
14092;SDS011;7123;49.468;10.992;2023-11-19T08:46:11;1.47;;;1.37;;
14092;SDS011;7123;49.468;10.992;2023-11-19T08:48:38;1.13;;;1.00;;
14092;SDS011;7123;49.468;10.992;2023-11-19T08:51:05;1.87;;;1.03;;
14092;SDS011;7123;49.468;10.992;2023-11-19T08:53:32;1.00;;;0.80;;
14092;SDS011;7123;49.468;10.992;2023-11-19T08:56:00;2.00;;;0.97;;
14092;SDS011;7123;49.468;10.992;2023-11-19T08:58:29;0.83;;;0.83;;
14092;SDS011;7123;49.468;10.992;2023-11-19T09:00:58;0.97;;;0.90;;
14092;SDS011;7123;49.468;10.992;2023-11-19T09:03:25;2.87;;;1.30;;
14092;SDS011;7123;49.468;10.992;2023-11-19T09:05:53;1.80;;;0.80;;
14092;SDS011;7123;49.468;10.992;2023-11-19T09:08:20;2.00;;;0.70;;
14092;SDS011;7123;49.468;10.992;2023-11-19T09:10:47;1.47;;;0.80;;
14092;SDS011;7123;49.468;10.992;2023-11-19T09:13:14;0.70;;;0.70;;
14092;SDS011;7123;49.468;10.992;2023-11-19T09:15:41;2.23;;;1.50;;
14092;SDS011;7123;49.468;10.992;2023-11-19T09:18:09;0.87;;;0.70;;
14092;SDS011;7123;49.468;10.992;2023-11-19T09:20:36;2.10;;;1.30;;
14092;SDS011;7123;49.468;10.992;2023-11-19T09:23:05;2.50;;;1.40;;
14092;SDS011;7123;49.468;10.992;2023-11-19T09:25:33;1.30;;;0.90;;
14092;SDS011;7123;49.468;10.992;2023-11-19T09:28:03;0.60;;;0.60;;
14092;SDS011;7123;49.468;10.992;2023-11-19T09:30:29;2.20;;;0.73;;
14092;SDS011;7123;49.468;10.992;2023-11-19T09:33:00;1.23;;;0.83;;
14092;SDS011;7123;49.468;10.992;2023-11-19T09:35:26;3.07;;;0.70;;
14092;SDS011;7123;49.468;10.992;2023-11-19T09:37:53;1.53;;;0.73;;
14092;SDS011;7123;49.468;10.992;2023-11-19T09:40:20;1.00;;;0.67;;
14092;SDS011;7123;49.468;10.992;2023-11-19T09:42:47;1.27;;;0.70;;
14092;SDS011;7123;49.468;10.992;2023-11-19T09:45:15;0.77;;;0.60;;
14092;SDS011;7123;49.468;10.992;2023-11-19T09:47:43;1.10;;;0.80;;
14092;SDS011;7123;49.468;10.992;2023-11-19T09:50:17;1.50;;;1.10;;
14092;SDS011;7123;49.468;10.992;2023-11-19T09:52:46;1.10;;;0.80;;
14092;SDS011;7123;49.468;10.992;2023-11-19T09:55:13;2.03;;;1.03;;
14092;SDS011;7123;49.468;10.992;2023-11-19T09:57:41;1.77;;;0.67;;
14092;SDS011;7123;49.468;10.992;2023-11-19T10:00:10;1.20;;;0.87;;
14092;SDS011;7123;49.468;10.992;2023-11-19T10:02:39;1.50;;;0.87;;
14092;SDS011;7123;49.468;10.992;2023-11-19T10:05:08;1.37;;;1.00;;
14092;SDS011;7123;49.468;10.992;2023-11-19T10:07:36;1.27;;;1.00;;
14092;SDS011;7123;49.468;10.992;2023-11-19T10:10:04;0.97;;;0.93;;
14092;SDS011;7123;49.468;10.992;2023-11-19T10:12:34;1.60;;;0.90;;
14092;SDS011;7123;49.468;10.992;2023-11-19T10:15:01;1.20;;;0.73;;
14092;SDS011;7123;49.468;10.992;2023-11-19T10:17:28;3.40;;;1.17;;
14092;SDS011;7123;49.468;10.992;2023-11-19T10:19:58;1.90;;;0.73;;
14092;SDS011;7123;49.468;10.992;2023-11-19T10:22:26;3.03;;;0.90;;
14092;SDS011;7123;49.468;10.992;2023-11-19T10:24:54;1.80;;;0.90;;
14092;SDS011;7123;49.468;10.992;2023-11-19T10:27:23;2.93;;;1.00;;
14092;SDS011;7123;49.468;10.992;2023-11-19T10:29:51;1.10;;;0.80;;
14092;SDS011;7123;49.468;10.992;2023-11-19T10:32:19;3.03;;;0.83;;
14092;SDS011;7123;49.468;10.992;2023-11-19T10:34:52;2.37;;;0.90;;
14092;SDS011;7123;49.468;10.992;2023-11-19T10:37:30;2.23;;;0.73;;
14092;SDS011;7123;49.468;10.992;2023-11-19T10:39:59;0.73;;;0.73;;
14092;SDS011;7123;49.468;10.992;2023-11-19T10:42:26;1.43;;;0.93;;
14092;SDS011;7123;49.468;10.992;2023-11-19T10:44:53;1.77;;;0.80;;
14092;SDS011;7123;49.468;10.992;2023-11-19T10:47:20;0.73;;;0.60;;
14092;SDS011;7123;49.468;10.992;2023-11-19T10:49:52;2.10;;;0.70;;
14092;SDS011;7123;49.468;10.992;2023-11-19T10:52:19;0.80;;;0.50;;
14092;SDS011;7123;49.468;10.992;2023-11-19T10:54:49;0.97;;;0.73;;
14092;SDS011;7123;49.468;10.992;2023-11-19T10:57:20;1.27;;;0.63;;
14092;SDS011;7123;49.468;10.992;2023-11-19T10:59:52;3.03;;;0.83;;
14092;SDS011;7123;49.468;10.992;2023-11-19T11:02:26;3.10;;;0.90;;
14092;SDS011;7123;49.468;10.992;2023-11-19T11:04:54;2.83;;;0.70;;
14092;SDS011;7123;49.468;10.992;2023-11-19T11:07:21;1.10;;;0.80;;
14092;SDS011;7123;49.468;10.992;2023-11-19T11:10:01;2.40;;;0.70;;
14092;SDS011;7123;49.468;10.992;2023-11-19T11:12:32;1.30;;;0.80;;
14092;SDS011;7123;49.468;10.992;2023-11-19T11:15:03;1.13;;;0.70;;
14092;SDS011;7123;49.468;10.992;2023-11-19T11:17:32;5.27;;;0.80;;
14092;SDS011;7123;49.468;10.992;2023-11-19T11:20:00;1.07;;;0.63;;
14092;SDS011;7123;49.468;10.992;2023-11-19T11:22:28;2.07;;;0.80;;
14092;SDS011;7123;49.468;10.992;2023-11-19T11:25:19;1.13;;;0.80;;
14092;SDS011;7123;49.468;10.992;2023-11-19T11:28:04;3.70;;;0.80;;
14092;SDS011;7123;49.468;10.992;2023-11-19T11:30:49;0.97;;;0.80;;
14092;SDS011;7123;49.468;10.992;2023-11-19T11:33:41;1.73;;;1.00;;
14092;SDS011;7123;49.468;10.992;2023-11-19T11:36:29;2.13;;;0.80;;
14092;SDS011;7123;49.468;10.992;2023-11-19T11:39:00;1.93;;;0.80;;
14092;SDS011;7123;49.468;10.992;2023-11-19T11:41:29;3.13;;;0.80;;
14092;SDS011;7123;49.468;10.992;2023-11-19T11:43:57;1.43;;;1.00;;
14092;SDS011;7123;49.468;10.992;2023-11-19T11:49:00;1.57;;;0.90;;
14092;SDS011;7123;49.468;10.992;2023-11-19T11:54:28;1.47;;;0.90;;
14092;SDS011;7123;49.468;10.992;2023-11-19T11:57:03;1.33;;;0.80;;
14092;SDS011;7123;49.468;10.992;2023-11-19T12:02:15;0.83;;;0.70;;
14092;SDS011;7123;49.468;10.992;2023-11-19T12:04:48;4.30;;;0.90;;
14092;SDS011;7123;49.468;10.992;2023-11-19T12:07:20;4.23;;;1.07;;
14092;SDS011;7123;49.468;10.992;2023-11-19T12:09:56;0.97;;;0.93;;
14092;SDS011;7123;49.468;10.992;2023-11-19T12:12:37;1.47;;;0.90;;
14092;SDS011;7123;49.468;10.992;2023-11-19T12:15:09;1.27;;;1.13;;
14092;SDS011;7123;49.468;10.992;2023-11-19T12:17:37;2.40;;;0.97;;
14092;SDS011;7123;49.468;10.992;2023-11-19T12:20:11;1.80;;;1.30;;
14092;SDS011;7123;49.468;10.992;2023-11-19T12:22:38;2.93;;;1.27;;
14092;SDS011;7123;49.468;10.992;2023-11-19T12:25:10;1.60;;;1.33;;
14092;SDS011;7123;49.468;10.992;2023-11-19T12:27:41;1.10;;;1.00;;
14092;SDS011;7123;49.468;10.992;2023-11-19T12:30:10;3.17;;;1.23;;
14092;SDS011;7123;49.468;10.992;2023-11-19T12:35:07;1.17;;;1.00;;
14092;SDS011;7123;49.468;10.992;2023-11-19T12:37:41;1.93;;;1.20;;
14092;SDS011;7123;49.468;10.992;2023-11-19T12:40:15;2.90;;;1.50;;
14092;SDS011;7123;49.468;10.992;2023-11-19T12:42:50;1.97;;;0.83;;
14092;SDS011;7123;49.468;10.992;2023-11-19T12:45:20;2.67;;;1.30;;
14092;SDS011;7123;49.468;10.992;2023-11-19T12:48:03;2.00;;;1.00;;
14092;SDS011;7123;49.468;10.992;2023-11-19T12:50:50;3.53;;;0.80;;
14092;SDS011;7123;49.468;10.992;2023-11-19T12:53:25;2.97;;;0.90;;
14092;SDS011;7123;49.468;10.992;2023-11-19T12:55:53;4.20;;;1.00;;
14092;SDS011;7123;49.468;10.992;2023-11-19T12:58:28;1.87;;;1.13;;
14092;SDS011;7123;49.468;10.992;2023-11-19T13:01:05;2.07;;;1.10;;
14092;SDS011;7123;49.468;10.992;2023-11-19T13:03:34;0.97;;;0.80;;
14092;SDS011;7123;49.468;10.992;2023-11-19T13:06:09;3.77;;;0.90;;
14092;SDS011;7123;49.468;10.992;2023-11-19T13:08:43;2.13;;;0.70;;
14092;SDS011;7123;49.468;10.992;2023-11-19T13:11:12;4.13;;;1.17;;
14092;SDS011;7123;49.468;10.992;2023-11-19T13:13:55;1.33;;;0.80;;
14092;SDS011;7123;49.468;10.992;2023-11-19T13:16:24;0.87;;;0.80;;
14092;SDS011;7123;49.468;10.992;2023-11-19T13:18:51;2.03;;;0.80;;
14092;SDS011;7123;49.468;10.992;2023-11-19T13:21:19;1.17;;;1.00;;
14092;SDS011;7123;49.468;10.992;2023-11-19T13:23:45;0.90;;;0.80;;
14092;SDS011;7123;49.468;10.992;2023-11-19T13:26:12;1.80;;;0.70;;
14092;SDS011;7123;49.468;10.992;2023-11-19T13:28:39;1.23;;;1.13;;
14092;SDS011;7123;49.468;10.992;2023-11-19T13:31:06;1.80;;;0.97;;
14092;SDS011;7123;49.468;10.992;2023-11-19T13:33:33;1.83;;;0.80;;
14092;SDS011;7123;49.468;10.992;2023-11-19T13:36:01;2.83;;;1.10;;
14092;SDS011;7123;49.468;10.992;2023-11-19T13:38:32;2.57;;;0.90;;
14092;SDS011;7123;49.468;10.992;2023-11-19T13:41:00;2.63;;;1.10;;
14092;SDS011;7123;49.468;10.992;2023-11-19T13:43:27;3.03;;;1.27;;
14092;SDS011;7123;49.468;10.992;2023-11-19T13:45:54;1.60;;;0.83;;
14092;SDS011;7123;49.468;10.992;2023-11-19T13:48:22;3.07;;;1.20;;
14092;SDS011;7123;49.468;10.992;2023-11-19T13:50:48;1.00;;;0.80;;
14092;SDS011;7123;49.468;10.992;2023-11-19T13:53:16;1.03;;;0.77;;
14092;SDS011;7123;49.468;10.992;2023-11-19T13:55:43;2.10;;;1.07;;
14092;SDS011;7123;49.468;10.992;2023-11-19T13:58:10;0.83;;;0.80;;
14092;SDS011;7123;49.468;10.992;2023-11-19T14:00:37;2.10;;;0.73;;
14092;SDS011;7123;49.468;10.992;2023-11-19T14:03:04;1.27;;;0.83;;
14092;SDS011;7123;49.468;10.992;2023-11-19T14:05:31;3.43;;;1.00;;
14092;SDS011;7123;49.468;10.992;2023-11-19T14:08:01;1.60;;;0.73;;
14092;SDS011;7123;49.468;10.992;2023-11-19T14:10:30;3.27;;;0.90;;
14092;SDS011;7123;49.468;10.992;2023-11-19T14:12:56;3.03;;;0.83;;
14092;SDS011;7123;49.468;10.992;2023-11-19T14:15:24;1.50;;;0.87;;
14092;SDS011;7123;49.468;10.992;2023-11-19T14:17:51;1.60;;;0.73;;
14092;SDS011;7123;49.468;10.992;2023-11-19T14:20:18;2.20;;;0.70;;
14092;SDS011;7123;49.468;10.992;2023-11-19T14:22:45;1.77;;;0.67;;
14092;SDS011;7123;49.468;10.992;2023-11-19T14:25:15;1.53;;;0.80;;
14092;SDS011;7123;49.468;10.992;2023-11-19T14:27:42;1.23;;;0.80;;
14092;SDS011;7123;49.468;10.992;2023-11-19T14:30:10;0.77;;;0.60;;
14092;SDS011;7123;49.468;10.992;2023-11-19T14:32:40;3.10;;;0.73;;
14092;SDS011;7123;49.468;10.992;2023-11-19T14:35:12;1.77;;;0.80;;
14092;SDS011;7123;49.468;10.992;2023-11-19T14:37:39;1.00;;;0.90;;
14092;SDS011;7123;49.468;10.992;2023-11-19T14:40:06;0.73;;;0.63;;
14092;SDS011;7123;49.468;10.992;2023-11-19T14:42:36;2.60;;;0.93;;
14092;SDS011;7123;49.468;10.992;2023-11-19T14:45:05;1.00;;;0.67;;
14092;SDS011;7123;49.468;10.992;2023-11-19T14:47:33;2.53;;;1.10;;
14092;SDS011;7123;49.468;10.992;2023-11-19T14:50:00;2.57;;;1.10;;
14092;SDS011;7123;49.468;10.992;2023-11-19T14:52:27;3.00;;;0.90;;
14092;SDS011;7123;49.468;10.992;2023-11-19T14:54:53;2.13;;;0.60;;
14092;SDS011;7123;49.468;10.992;2023-11-19T14:57:22;3.63;;;1.13;;
14092;SDS011;7123;49.468;10.992;2023-11-19T14:59:49;1.17;;;0.70;;
14092;SDS011;7123;49.468;10.992;2023-11-19T15:02:16;1.80;;;0.90;;
14092;SDS011;7123;49.468;10.992;2023-11-19T15:04:44;0.73;;;0.70;;
14092;SDS011;7123;49.468;10.992;2023-11-19T15:07:11;2.57;;;0.77;;
14092;SDS011;7123;49.468;10.992;2023-11-19T15:09:38;1.10;;;0.70;;
14092;SDS011;7123;49.468;10.992;2023-11-19T15:12:05;2.37;;;0.80;;